首页
METAR-TAF:

METAR-TAF

机场 :

基多, 厄瓜多尔

蘇克雷元帥國際機場

纬度: 0-06-48S, 经度: 78-21-31W, 海拔: 2400米

当前天气观测

该预报发布于43分钟前的14:00 UTC
风速4节,风向西转西南
温度 16°C
湿度 82%
气压 1028 hPa
能见度10公里或以上
少量云层高于3000英尺
散云层高于10000英尺

METAR: SEQM 251400Z 25004KT 9999 FEW030 SCT100 16/13 Q1028 NOSIG RMK A3037

时间: 09:43 (14:43 UTC)

预报

该预报发布于4小时和56分钟前的09:47 UTC
预报有效从25日的 12点(UTC)到 26日的 12点(UTC)
风速3节,风向多变
能见度10公里或以上
散云层高于3000英尺
散云层高于10000英尺
多云层高于30000英尺
从 25日的 1800点(UTC)
风速15节,风向
能见度10公里或以上
多云层高于3000英尺
散云层高于10000英尺
短暂存在
从 25日的 20点(UTC)到 25日的 23点(UTC)
风速10节,风向
能見度: 8000
少量云层高于2600英尺, 积雨云.
多云层高于3000英尺, 塔状积云.
雷暴, 雨
从 26日的 0000点(UTC)
风速4节,风向北转东北
能见度10公里或以上
少量云层高于500英尺
多云层高于2000英尺
从 26日的 0600点(UTC)
风速节,风向
能見度: 6000
散云层高于500英尺
多云层高于2000英尺
毛毛雨, 碎片雾

TAF: SEQM 250947Z 2512/2612 VRB03KT 9999 SCT030 SCT100 BKN300 FM251800 35015KT 9999 BKN030 SCT100 TEMPO 2520/2523 18010KT 8000 TSRA FEW026CB BKN030TCU FM260000 03004KT 9999 FEW005 BKN020 FM260600 00000KT 6000 DZ BCFG SCT005 BKN020 TX24/2519Z TN12/2611Z

超过4000个机场的气象观测和天气预报(METAR&TAF报告)。

可查询的气象台以黄色和红色小点在地图上表示。

将鼠标移到小点上方,可查看气象台名称。

然后点击查看天气观测和预报。

如需切换地图:点击带黑十字的绿色按钮放大地图;点击带横线的绿色按钮缩小地图;或者点击绿色箭头查看邻近地区的地图。


METAR-TAF: